Albany, Oregon
Current Conditions -  °F | °C
As of 7:35 PM on Saturday 22 Nov 2014 (Local Time) from KCVO Reporting Station
Broken Clouds Broken Clouds  
Wind Chill: 45°   Ceiling: 4700
Heat Index: 45°   Visibility: 10mi
Dew Point: 39°   Wind: 3mph
Humidity: 81%   Direction: 210°SSW
Pressure: 30.21"   Gusts: NA
Location:  44.64°N, 123.1°W
Report Text: KCVO 230335Z AUTO 21003KT 10SM SCT037 BKN047 07/04 A3021 RMK AO1
Loading
Personal Weather Stations






























Interactive Weather Map New forecast layout! Learn more

10-Day Weather Forecast

Advertisements
Track Severe Weather on mobile